createdAt,value
2019-04-23T05:03:23.898Z,13.80
2019-04-23T05:06:10.836Z,11.68
2019-04-23T05:11:00.116Z,14.93
2019-04-23T05:15:58.602Z,12.45
2019-04-23T05:18:38.485Z,15.05
2019-04-23T05:21:16.056Z,12.55
2019-04-23T05:26:19.589Z,15.08
2019-04-23T05:28:58.587Z,17.02
2019-04-23T05:31:19.003Z,15.83
2019-04-23T05:33:57.102Z,12.98
2019-04-23T05:41:36.879Z,11.03
2019-04-23T05:43:55.804Z,12.18
2019-04-23T05:48:59.634Z,11.88
2019-04-23T05:51:37.979Z,12.95
2019-04-23T05:53:58.314Z,13.40
2019-04-23T05:56:35.054Z,11.73
2019-04-23T05:59:06.193Z,12.58
2019-04-23T06:09:13.951Z,11.35
2019-04-23T06:11:54.212Z,12.10
2019-04-23T06:16:52.733Z,9.78
2019-04-23T06:19:16.836Z,9.50
2019-04-23T06:22:00.432Z,14.75
2019-04-23T06:26:51.745Z,11.20
2019-04-23T06:29:25.600Z,11.55
2019-04-23T06:31:55.231Z,10.35
2019-04-23T06:34:29.206Z,12.40
2019-04-23T06:36:57.226Z,12.47
2019-04-23T06:39:39.649Z,12.53
2019-04-23T06:44:51.374Z,8.88
2019-04-23T06:49:50.910Z,14.43
2019-04-23T06:55:09.122Z,14.23
2019-04-23T06:57:27.091Z,13.25
2019-04-23T07:00:02.410Z,11.00
2019-04-23T07:02:33.250Z,11.78
2019-04-23T07:05:15.868Z,13.48
2019-04-23T07:10:03.584Z,13.45
2019-04-23T07:12:38.578Z,14.98
2019-04-23T07:15:25.064Z,13.32
2019-04-23T07:17:37.637Z,11.50
2019-04-23T07:20:12.897Z,14.35
2019-04-23T07:22:43.219Z,9.50
2019-04-23T07:25:17.686Z,13.45
2019-04-23T07:27:49.326Z,10.32
2019-04-23T07:30:20.601Z,15.25
2019-04-23T07:32:52.904Z,9.13
2019-04-23T07:35:15.941Z,7.50
2019-04-23T07:38:06.144Z,10.32
2019-04-23T07:40:31.301Z,12.20
2019-04-23T07:43:03.336Z,11.00
2019-04-23T07:45:45.437Z,12.73
2019-04-23T07:50:48.027Z,12.18
2019-04-23T07:55:56.816Z,10.45
2019-04-23T08:05:55.850Z,15.28
2019-04-23T08:08:42.895Z,7.10
2019-04-23T08:16:23.280Z,11.57
2019-04-23T08:18:52.697Z,8.45
2019-04-23T08:23:57.247Z,8.98
2019-04-23T08:29:12.875Z,12.45
2019-04-23T08:31:45.176Z,10.13
2019-04-23T08:39:19.393Z,13.22
2019-04-23T08:42:09.462Z,10.53
2019-04-23T08:44:27.399Z,9.25
2019-04-23T08:47:05.315Z,10.15
2019-04-23T08:49:46.920Z,15.98
2019-04-23T08:54:52.021Z,11.90
2019-04-23T08:57:08.747Z,8.23
2019-04-23T08:59:43.988Z,13.15
2019-04-23T09:04:50.341Z,14.45
2019-04-23T09:09:53.893Z,8.53
2019-04-23T09:12:24.228Z,12.10
2019-04-23T09:14:51.114Z,12.13
2019-04-23T09:17:27.410Z,11.10
2019-04-23T09:20:20.389Z,7.33
2019-04-23T09:25:02.725Z,12.60
2019-04-23T09:32:53.986Z,12.20
2019-04-23T09:35:20.884Z,8.70
2019-04-23T09:38:04.872Z,17.40
2019-04-23T09:43:29.511Z,9.08
2019-04-23T09:46:10.924Z,12.58
2019-04-23T09:48:35.459Z,7.60
2019-04-23T09:51:10.307Z,8.73
2019-04-23T09:53:34.199Z,11.00
2019-04-23T09:56:06.882Z,10.38
2019-04-23T09:58:38.020Z,10.68
2019-04-23T10:01:25.814Z,11.12
2019-04-23T10:03:41.707Z,12.80
2019-04-23T10:06:11.809Z,12.82
2019-04-23T10:08:43.062Z,6.75
2019-04-23T10:11:09.429Z,12.63
2019-04-23T10:13:40.584Z,13.72
2019-04-23T10:16:15.239Z,10.25
2019-04-23T10:18:42.458Z,12.13
2019-04-23T10:21:13.103Z,13.38
2019-04-23T10:23:43.334Z,11.33
2019-04-23T10:26:14.244Z,11.12
2019-04-23T10:28:47.691Z,10.58
2019-04-23T10:31:18.713Z,13.98
2019-04-23T10:33:50.287Z,14.58
2019-04-23T10:36:23.912Z,11.45
2019-04-23T10:39:00.645Z,12.85
2019-04-23T10:41:25.672Z,8.80
2019-04-23T10:43:58.581Z,8.00
2019-04-23T10:47:07.874Z,9.83
2019-04-23T10:49:53.254Z,8.05
2019-04-23T10:54:57.431Z,12.82
2019-04-23T10:57:16.626Z,12.73
2019-04-23T11:05:00.023Z,9.85
2019-04-23T11:15:25.638Z,12.58
2019-04-23T11:17:46.303Z,10.28
2019-04-23T11:20:25.437Z,18.23
2019-04-23T11:22:46.498Z,14.73
2019-04-23T11:25:26.374Z,18.00
2019-04-23T11:27:51.061Z,23.35
2019-04-23T11:30:32.522Z,11.78
2019-04-23T11:33:00.790Z,18.45
2019-04-23T11:35:31.412Z,15.55
2019-04-23T11:40:25.314Z,16.10
2019-04-23T11:51:21.756Z,18.25
2019-04-23T12:01:03.179Z,12.30
2019-04-23T12:03:26.489Z,19.10
2019-04-23T12:06:09.594Z,15.25
2019-04-23T12:08:37.785Z,26.48
2019-04-23T12:14:02.689Z,18.20
2019-04-23T12:16:38.114Z,15.30
2019-04-23T12:19:28.027Z,12.43
2019-04-23T12:21:37.468Z,11.33
2019-04-23T12:24:16.312Z,15.40
2019-04-23T12:26:53.012Z,15.43
2019-04-23T12:29:15.360Z,16.57
2019-04-23T12:31:38.296Z,15.90
2019-04-23T12:34:14.971Z,21.07
2019-04-23T12:36:52.703Z,18.10
2019-04-23T12:39:30.880Z,16.32
2019-04-23T12:42:01.735Z,18.95
2019-04-23T12:44:30.713Z,11.97
2019-04-23T12:47:04.879Z,14.70
2019-04-23T12:49:53.357Z,15.80
2019-04-23T12:52:12.699Z,19.55
2019-04-23T12:54:52.179Z,26.35
2019-04-23T12:57:17.988Z,18.00
2019-04-23T12:59:44.337Z,16.02
2019-04-23T13:04:48.646Z,26.20
2019-04-23T13:07:26.381Z,14.47
2019-04-23T13:10:00.967Z,13.85
2019-04-23T13:12:36.199Z,21.57
2019-04-23T13:15:05.618Z,19.20
2019-04-23T13:17:42.294Z,21.87
2019-04-23T13:20:00.127Z,23.52
2019-04-23T13:25:02.439Z,26.50
2019-04-23T13:27:50.266Z,27.15
2019-04-23T13:30:16.621Z,32.00
2019-04-23T13:35:28.129Z,26.90
2019-04-23T13:37:56.919Z,29.37
2019-04-23T13:40:23.818Z,21.77
2019-04-23T13:42:53.641Z,20.32
2019-04-23T13:45:49.665Z,21.85
2019-04-23T13:48:02.893Z,25.62
2019-04-23T13:50:38.515Z,19.30
2019-04-23T13:55:31.779Z,24.18
2019-04-23T14:03:13.418Z,18.80
2019-04-23T14:06:03.226Z,12.28
2019-04-23T14:11:02.256Z,22.22
2019-04-23T14:13:46.311Z,20.60
2019-04-23T14:16:20.759Z,27.90
2019-04-23T14:24:04.559Z,18.82
2019-04-23T14:29:02.157Z,25.08
2019-04-23T14:31:22.013Z,17.23
2019-04-23T14:44:10.784Z,22.25
2019-04-23T14:47:00.391Z,20.62
2019-04-23T14:49:19.289Z,18.82
2019-04-23T14:54:22.918Z,17.15
2019-04-23T14:56:52.607Z,23.98
2019-04-23T14:59:16.340Z,26.20
2019-04-23T15:01:54.988Z,25.77
2019-04-23T15:04:27.324Z,18.20
2019-04-23T15:07:15.639Z,15.85
2019-04-23T15:09:36.595Z,27.00
2019-04-23T15:12:11.924Z,16.37
2019-04-23T15:14:47.948Z,15.83
2019-04-23T15:17:05.783Z,21.40
2019-04-23T15:19:48.160Z,15.48
2019-04-23T15:22:13.493Z,14.73
2019-04-23T15:24:49.941Z,20.55
2019-04-23T15:27:59.983Z,22.15
2019-04-23T15:29:42.673Z,16.97
2019-04-23T15:34:57.944Z,12.37
2019-04-23T15:40:00.719Z,15.38
2019-04-23T15:45:01.295Z,14.30
2019-04-23T15:50:19.921Z,12.68
2019-04-23T15:52:44.335Z,16.70
2019-04-23T15:55:05.920Z,15.68
2019-04-23T16:00:13.009Z,12.53
2019-04-23T16:02:19.274Z,12.28
2019-04-23T16:04:51.193Z,16.37
2019-04-23T16:07:38.210Z,14.43
2019-04-23T16:10:26.034Z,14.25
2019-04-23T16:12:56.810Z,14.23
2019-04-23T16:15:35.513Z,15.45
2019-04-23T16:18:13.995Z,13.68
2019-04-23T16:20:47.009Z,14.87
2019-04-23T16:23:04.701Z,26.40
2019-04-23T16:25:43.666Z,21.62
2019-04-23T16:28:28.915Z,17.55
2019-04-23T16:31:00.130Z,18.50
2019-04-23T16:33:23.870Z,16.87
2019-04-23T16:41:17.430Z,15.98
2019-04-23T16:43:48.664Z,14.80
2019-04-23T16:46:20.980Z,18.05
2019-04-23T16:49:10.194Z,24.70
2019-04-23T16:51:27.421Z,13.98
2019-04-23T16:54:03.078Z,12.07
2019-04-23T16:56:42.005Z,18.57
2019-04-23T16:59:10.722Z,13.25
2019-04-23T17:01:35.408Z,16.00
2019-04-23T17:04:17.906Z,14.18
2019-04-23T17:06:39.511Z,18.02
2019-04-23T17:09:09.501Z,18.25
2019-04-23T17:11:46.824Z,21.12
2019-04-23T17:16:44.325Z,15.60
2019-04-23T17:19:24.208Z,18.75
2019-04-23T17:21:59.923Z,19.77
2019-04-23T17:24:25.838Z,18.35
2019-04-23T17:27:11.072Z,15.58
2019-04-23T17:29:35.163Z,18.55
2019-04-23T17:32:10.390Z,18.65
2019-04-23T17:34:57.261Z,21.87
2019-04-23T17:37:29.969Z,16.82
2019-04-23T17:42:56.885Z,23.02
2019-04-23T17:50:56.575Z,15.75
2019-04-23T17:58:37.294Z,22.70
2019-04-23T18:04:10.350Z,22.75
2019-04-23T18:09:14.571Z,21.25
2019-04-23T18:11:37.692Z,23.85
2019-04-23T18:14:08.296Z,20.32
2019-04-23T18:16:55.511Z,21.87
2019-04-23T18:19:16.819Z,25.35
2019-04-23T18:25:04.354Z,19.85
2019-04-23T18:27:32.953Z,20.68
2019-04-23T18:30:15.845Z,19.50
2019-04-23T18:35:32.716Z,19.62
2019-04-23T18:38:18.706Z,21.37
2019-04-23T18:40:58.951Z,16.50
2019-04-23T18:43:23.917Z,22.75
2019-04-23T18:45:53.836Z,21.12
2019-04-23T18:51:03.753Z,21.73
2019-04-23T18:56:19.156Z,17.27
2019-04-23T19:01:28.044Z,16.27
2019-04-23T19:06:40.018Z,17.52
2019-04-23T19:12:10.919Z,20.77
2019-04-23T19:20:04.338Z,21.40
2019-04-23T19:24:51.906Z,18.07
2019-04-23T19:27:37.084Z,15.03
2019-04-23T19:30:27.407Z,22.20
2019-04-23T19:32:59.512Z,16.00
2019-04-23T19:35:57.066Z,18.65
2019-04-23T19:38:08.302Z,16.67
2019-04-23T19:40:44.773Z,17.82
2019-04-23T19:43:11.507Z,17.02
2019-04-23T19:45:56.724Z,18.70
2019-04-23T19:48:19.312Z,20.77
2019-04-23T19:53:33.877Z,22.70
2019-04-23T19:56:08.661Z,24.37
2019-04-23T20:01:16.704Z,16.05
2019-04-23T20:03:49.795Z,21.30
2019-04-23T20:09:10.418Z,18.10
2019-04-23T20:11:27.546Z,14.70
2019-04-23T20:18:55.492Z,19.90
2019-04-23T20:21:36.379Z,15.78
2019-04-23T20:31:44.984Z,15.63
2019-04-23T20:34:56.288Z,17.40
2019-04-23T20:37:13.589Z,23.73
2019-04-23T20:39:52.434Z,17.42
2019-04-23T20:42:16.610Z,19.02
2019-04-23T20:48:20.002Z,20.57
2019-04-23T20:49:51.504Z,22.30
2019-04-23T20:52:22.994Z,18.77
2019-04-23T20:57:51.818Z,18.67
2019-04-23T21:00:20.545Z,23.62
2019-04-23T21:05:43.055Z,22.20
2019-04-23T21:13:30.869Z,15.18
2019-04-23T21:15:51.394Z,19.12
2019-04-23T21:25:47.518Z,16.07
